Bone Gap, Illinois
Current Conditions -  °F | °C
As of 5:55 AM on Thursday 23 Oct 2014 (Local Time) from KAJG Reporting Station
Moderate Fog Moderate Fog  
Wind Chill: 36°   Ceiling: 500
Heat Index: 36°   Visibility: 0.5mi
Dew Point: 36°   Wind: 3mph
Humidity: 100%   Direction: 100°E
Pressure: 30.25"   Gusts: NA
Location:  38.45°N, 88°W
Report Text: KAJG 231055Z AUTO 10003KT 1/2SM FG VV005 02/02 A3025 RMK AO2
Loading
Personal Weather Stations






























Interactive Weather Map
Tropical Storm Tracking
New forecast layout! Learn more

10-Day Weather Forecast

Advertisements
Track Severe Weather on mobile